createdAt,value
2019-04-21T00:00:58.694Z,58.95
2019-04-21T00:03:34.766Z,58.25
2019-04-21T00:06:18.368Z,58.48
2019-04-21T00:08:48.773Z,58.37
2019-04-21T00:11:25.018Z,58.30
2019-04-21T00:13:47.025Z,59.83
2019-04-21T00:16:10.287Z,58.93
2019-04-21T00:18:54.870Z,59.56
2019-04-21T00:21:26.705Z,60.49
2019-04-21T00:24:20.248Z,60.51
2019-04-21T00:26:57.427Z,61.60
2019-04-21T00:29:37.999Z,62.00
2019-04-21T00:32:03.124Z,62.38
2019-04-21T00:34:17.838Z,62.79
2019-04-21T00:36:59.659Z,63.60
2019-04-21T00:42:09.799Z,63.30
2019-04-21T00:44:33.024Z,64.21
2019-04-21T00:47:13.971Z,63.85
2019-04-21T00:49:54.928Z,63.69
2019-04-21T00:53:03.547Z,63.58
2019-04-21T00:55:38.628Z,63.99
2019-04-21T00:58:10.493Z,65.14
2019-04-21T01:00:42.944Z,65.61
2019-04-21T01:03:14.681Z,65.69
2019-04-21T01:05:47.246Z,65.78
2019-04-21T01:08:15.818Z,65.75
2019-04-21T01:10:40.932Z,66.08
2019-04-21T01:13:21.710Z,66.18
2019-04-21T01:15:53.053Z,66.43
2019-04-21T01:18:20.980Z,66.54
2019-04-21T01:20:33.894Z,66.66
2019-04-21T01:23:04.336Z,67.08
2019-04-21T01:25:41.512Z,66.72
2019-04-21T01:28:24.600Z,67.48
2019-04-21T01:30:57.287Z,67.06
2019-04-21T01:33:34.904Z,67.10
2019-04-21T01:35:58.385Z,67.58
2019-04-21T01:38:44.340Z,67.81
2019-04-21T01:41:11.346Z,68.44
2019-04-21T01:43:33.718Z,67.85
2019-04-21T01:46:10.709Z,68.09
2019-04-21T01:48:37.483Z,67.92
2019-04-21T01:51:08.533Z,68.13
2019-04-21T01:54:03.553Z,68.50
2019-04-21T01:56:40.183Z,68.28
2019-04-21T01:59:01.541Z,68.24
2019-04-21T02:01:46.105Z,68.88
2019-04-21T02:04:24.562Z,69.04
2019-04-21T02:06:50.388Z,68.61
2019-04-21T02:09:23.203Z,69.02
2019-04-21T02:11:54.838Z,68.82
2019-04-21T02:14:31.156Z,68.32
2019-04-21T02:16:59.309Z,68.50
2019-04-21T02:19:26.636Z,68.73
2019-04-21T02:21:55.292Z,68.70
2019-04-21T02:24:45.154Z,69.13
2019-04-21T02:27:07.101Z,70.24
2019-04-21T02:29:40.892Z,70.27
2019-04-21T02:32:21.707Z,70.62
2019-04-21T02:39:57.389Z,69.35
2019-04-21T02:42:32.898Z,68.78
2019-04-21T02:50:09.569Z,69.44
2019-04-21T02:52:39.292Z,70.15
2019-04-21T02:55:15.618Z,70.52
2019-04-21T02:57:41.526Z,70.31
2019-04-21T03:00:13.647Z,71.12
2019-04-21T03:06:24.931Z,71.88
2019-04-21T03:08:50.060Z,72.15
2019-04-21T03:11:11.918Z,71.58
2019-04-21T03:13:46.960Z,71.90
2019-04-21T03:23:54.105Z,72.36
2019-04-21T03:26:28.543Z,72.63
2019-04-21T03:28:56.297Z,72.25
2019-04-21T03:31:55.486Z,72.87
2019-04-21T03:36:47.690Z,74.04
2019-04-21T03:39:01.224Z,73.99
2019-04-21T03:41:37.762Z,74.13
2019-04-21T03:44:12.311Z,74.34
2019-04-21T03:46:41.886Z,74.37
2019-04-21T03:54:19.604Z,73.98
2019-04-21T03:59:14.250Z,72.05
2019-04-21T04:02:18.896Z,72.39
2019-04-21T04:05:08.155Z,72.82
2019-04-21T04:07:55.116Z,73.28
2019-04-21T04:12:46.969Z,73.45
2019-04-21T04:15:29.003Z,73.81
2019-04-21T04:17:46.768Z,73.82
2019-04-21T04:22:55.447Z,74.10
2019-04-21T04:25:25.355Z,74.00
2019-04-21T04:30:35.732Z,73.84
2019-04-21T04:32:56.637Z,74.78
2019-04-21T04:35:48.996Z,74.21
2019-04-21T04:38:08.623Z,73.99
2019-04-21T04:40:51.703Z,74.08
2019-04-21T04:45:54.059Z,73.67
2019-04-21T04:48:20.324Z,73.64
2019-04-21T04:50:55.487Z,73.08
2019-04-21T04:53:34.648Z,73.20
2019-04-21T04:56:00.912Z,73.51
2019-04-21T04:58:54.587Z,73.00
2019-04-21T05:01:21.642Z,73.02
2019-04-21T05:03:44.510Z,72.05
2019-04-21T05:09:14.794Z,71.89
2019-04-21T05:14:07.581Z,71.36
2019-04-21T05:19:20.227Z,71.22
2019-04-21T05:21:39.404Z,71.05
2019-04-21T05:24:01.351Z,70.41
2019-04-21T05:26:36.024Z,70.41
2019-04-21T05:29:01.975Z,69.19
2019-04-21T05:31:54.782Z,68.85
2019-04-21T05:34:26.850Z,68.17
2019-04-21T05:37:14.265Z,66.56
2019-04-21T05:39:52.287Z,56.72
2019-04-21T05:42:27.228Z,51.11
2019-04-21T05:45:12.711Z,49.72
2019-04-21T05:47:46.313Z,48.16
2019-04-21T05:50:16.592Z,46.08
2019-04-21T05:52:44.715Z,42.39
2019-04-21T05:55:34.085Z,41.49
2019-04-21T05:57:57.297Z,39.49
2019-04-21T06:00:52.919Z,38.27
2019-04-21T06:03:10.083Z,38.01
2019-04-21T06:05:53.439Z,37.57
2019-04-21T06:08:13.217Z,37.45
2019-04-21T06:10:47.506Z,36.99
2019-04-21T06:13:24.398Z,37.65
2019-04-21T06:15:54.774Z,37.17
2019-04-21T06:18:20.186Z,36.77
2019-04-21T06:20:55.113Z,35.60
2019-04-21T06:23:27.049Z,35.91
2019-04-21T06:26:14.840Z,34.71
2019-04-21T06:28:31.775Z,34.34
2019-04-21T06:33:36.064Z,34.23
2019-04-21T06:44:01.425Z,32.72
2019-04-21T06:49:02.617Z,32.05
2019-04-21T06:51:48.202Z,31.62
2019-04-21T06:54:09.535Z,32.96
2019-04-21T06:56:40.971Z,31.41
2019-04-21T06:59:09.639Z,30.95
2019-04-21T07:04:31.227Z,30.17
2019-04-21T07:06:52.049Z,31.80
2019-04-21T07:09:26.673Z,30.83
2019-04-21T07:11:53.843Z,30.25
2019-04-21T07:14:32.085Z,29.99
2019-04-21T07:17:09.419Z,30.45
2019-04-21T07:19:34.710Z,29.66
2019-04-21T07:22:03.182Z,30.42
2019-04-21T07:24:37.298Z,31.76
2019-04-21T07:27:10.209Z,30.81
2019-04-21T07:29:50.626Z,30.80
2019-04-21T07:32:12.425Z,30.38
2019-04-21T07:34:49.847Z,26.03
2019-04-21T07:37:12.572Z,26.24
2019-04-21T07:39:43.939Z,26.10
2019-04-21T07:42:13.371Z,25.72
2019-04-21T07:44:45.959Z,26.25
2019-04-21T07:47:26.488Z,26.74
2019-04-21T07:50:14.362Z,27.14
2019-04-21T07:53:07.025Z,27.18
2019-04-21T07:58:11.173Z,26.62
2019-04-21T08:00:51.200Z,26.21
2019-04-21T08:03:14.233Z,25.84
2019-04-21T08:05:45.758Z,26.50
2019-04-21T08:08:12.083Z,26.66
2019-04-21T08:10:47.085Z,25.07
2019-04-21T08:13:28.927Z,25.52
2019-04-21T08:15:52.993Z,25.04
2019-04-21T08:18:28.314Z,26.11
2019-04-21T08:20:53.438Z,25.55
2019-04-21T08:23:31.751Z,25.32
2019-04-21T08:26:06.099Z,25.26
2019-04-21T08:28:31.942Z,25.68
2019-04-21T08:31:10.277Z,25.19
2019-04-21T08:33:47.082Z,25.08
2019-04-21T08:36:19.309Z,24.94
2019-04-21T08:38:46.002Z,23.48
2019-04-21T08:41:17.055Z,24.51
2019-04-21T08:46:20.152Z,24.16
2019-04-21T08:48:52.802Z,24.07
2019-04-21T08:51:28.931Z,24.75
2019-04-21T08:53:53.564Z,23.34
2019-04-21T08:56:30.409Z,23.37
2019-04-21T08:59:31.478Z,24.41
2019-04-21T09:02:06.271Z,23.96
2019-04-21T09:04:33.945Z,25.28
2019-04-21T09:07:12.946Z,24.17
2019-04-21T09:09:41.629Z,24.06
2019-04-21T09:12:15.065Z,23.72
2019-04-21T09:14:51.244Z,22.66
2019-04-21T09:17:16.387Z,23.14
2019-04-21T09:22:28.335Z,23.62
2019-04-21T09:24:56.017Z,23.36
2019-04-21T09:27:27.864Z,22.15
2019-04-21T09:29:51.662Z,23.01
2019-04-21T09:32:20.255Z,22.56
2019-04-21T09:34:49.275Z,23.23
2019-04-21T09:37:36.705Z,21.46
2019-04-21T09:39:55.177Z,20.96
2019-04-21T09:42:33.290Z,22.40
2019-04-21T09:44:59.459Z,23.29
2019-04-21T09:47:37.472Z,22.35
2019-04-21T09:50:01.872Z,23.09
2019-04-21T09:52:40.884Z,19.71
2019-04-21T09:55:10.087Z,19.92
2019-04-21T09:57:43.277Z,19.93
2019-04-21T10:00:18.257Z,19.57
2019-04-21T10:02:51.610Z,19.45
2019-04-21T10:05:14.542Z,19.31
2019-04-21T10:07:44.762Z,18.06
2019-04-21T10:10:15.263Z,18.49
2019-04-21T10:12:45.513Z,18.40
2019-04-21T10:15:16.571Z,18.52
2019-04-21T10:18:00.553Z,18.61
2019-04-21T10:20:30.960Z,18.22
2019-04-21T10:23:01.064Z,16.44
2019-04-21T10:25:32.398Z,16.85
2019-04-21T10:28:03.326Z,19.17
2019-04-21T10:30:34.762Z,18.74
2019-04-21T10:33:06.157Z,18.59
2019-04-21T10:35:37.046Z,19.32
2019-04-21T10:38:20.080Z,18.00
2019-04-21T10:40:41.255Z,18.32
2019-04-21T10:43:13.734Z,17.90
2019-04-21T10:45:43.505Z,17.98
2019-04-21T10:48:14.694Z,18.50
2019-04-21T10:50:45.409Z,17.99
2019-04-21T10:53:23.014Z,18.37
2019-04-21T10:56:06.406Z,17.08
2019-04-21T10:58:32.032Z,17.85
2019-04-21T11:01:08.448Z,17.45
2019-04-21T11:03:44.631Z,18.47
2019-04-21T11:06:18.778Z,18.23
2019-04-21T11:08:53.899Z,16.90
2019-04-21T11:11:23.916Z,18.20
2019-04-21T11:13:54.848Z,17.64
2019-04-21T11:16:26.982Z,17.10
2019-04-21T11:18:57.939Z,17.73
2019-04-21T11:21:29.213Z,17.30
2019-04-21T11:23:59.398Z,18.41
2019-04-21T11:26:29.920Z,18.52
2019-04-21T11:29:01.089Z,17.77
2019-04-21T11:31:31.369Z,16.93
2019-04-21T11:34:01.521Z,16.64
2019-04-21T11:36:31.686Z,17.27
2019-04-21T11:39:30.739Z,17.81
2019-04-21T11:41:51.989Z,16.86
2019-04-21T11:44:24.615Z,16.75
2019-04-21T11:46:56.380Z,17.20
2019-04-21T11:49:31.982Z,18.10
2019-04-21T11:52:00.783Z,17.28
2019-04-21T11:54:31.094Z,18.62
2019-04-21T11:57:11.801Z,18.31
2019-04-21T11:59:35.622Z,17.75
2019-04-21T12:02:07.722Z,17.36
2019-04-21T12:04:39.295Z,16.54
2019-04-21T12:07:09.566Z,16.12
2019-04-21T12:09:39.802Z,16.38
2019-04-21T12:12:10.032Z,16.05
2019-04-21T12:14:40.187Z,17.47
2019-04-21T12:17:10.357Z,17.43
2019-04-21T12:19:40.890Z,17.60
2019-04-21T12:22:20.192Z,17.16
2019-04-21T12:24:43.176Z,17.06
2019-04-21T12:27:14.055Z,17.55
2019-04-21T12:29:44.301Z,16.45
2019-04-21T12:32:33.868Z,17.03
2019-04-21T12:35:06.006Z,16.61
2019-04-21T12:37:42.819Z,17.67
2019-04-21T12:40:14.763Z,17.71
2019-04-21T12:42:45.522Z,16.33
2019-04-21T12:45:17.297Z,18.60
2019-04-21T12:47:57.959Z,17.82
2019-04-21T12:50:27.792Z,17.30
2019-04-21T12:52:58.025Z,16.64
2019-04-21T12:55:36.631Z,17.46
2019-04-21T12:58:03.479Z,17.96
2019-04-21T13:00:33.805Z,18.35
2019-04-21T13:03:04.052Z,17.10
2019-04-21T13:05:39.868Z,18.50
2019-04-21T13:08:09.353Z,17.61
2019-04-21T13:10:40.202Z,16.76
2019-04-21T13:13:10.452Z,16.35
2019-04-21T13:15:40.631Z,16.83
2019-04-21T13:18:12.230Z,18.41
2019-04-21T13:20:42.571Z,19.23
2019-04-21T13:23:13.840Z,19.36
2019-04-21T13:25:44.012Z,18.95
2019-04-21T13:28:14.651Z,18.11
2019-04-21T13:30:46.300Z,17.14
2019-04-21T13:33:16.464Z,17.54
2019-04-21T13:35:50.950Z,15.30
2019-04-21T13:38:32.610Z,15.38
2019-04-21T13:41:17.484Z,15.57
2019-04-21T13:43:37.137Z,17.37
2019-04-21T13:46:08.060Z,17.10
2019-04-21T13:48:38.331Z,17.30
2019-04-21T13:51:09.122Z,18.25
2019-04-21T13:53:41.789Z,17.64
2019-04-21T13:56:11.993Z,18.61
2019-04-21T13:58:42.310Z,18.66
2019-04-21T14:01:13.737Z,18.11
2019-04-21T14:03:44.118Z,17.87
2019-04-21T14:06:14.221Z,17.83
2019-04-21T14:08:45.373Z,19.26
2019-04-21T14:11:17.535Z,18.82
2019-04-21T14:13:48.268Z,18.80
2019-04-21T14:16:18.512Z,18.52
2019-04-21T14:18:49.616Z,18.43
2019-04-21T14:21:23.126Z,19.80
2019-04-21T14:23:53.925Z,18.54
2019-04-21T14:26:26.817Z,19.11
2019-04-21T14:28:57.046Z,18.91
2019-04-21T14:31:28.430Z,18.86
2019-04-21T14:34:00.166Z,18.21
2019-04-21T14:36:39.762Z,19.78
2019-04-21T14:39:24.488Z,17.62
2019-04-21T14:42:15.913Z,19.39
2019-04-21T14:45:30.691Z,17.79
2019-04-21T14:48:48.791Z,18.73
2019-04-21T15:02:03.913Z,19.52
2019-04-21T15:07:33.003Z,18.88
2019-04-21T15:10:36.810Z,18.43
2019-04-21T15:13:17.350Z,19.21
2019-04-21T15:13:35.557Z,18.70
2019-04-21T15:16:29.071Z,17.84
2019-04-21T15:19:20.449Z,18.38
2019-04-21T15:22:06.221Z,18.46
2019-04-21T15:24:38.295Z,18.14
2019-04-21T15:41:26.856Z,18.99
2019-04-21T15:47:04.034Z,19.38
2019-04-21T15:50:30.290Z,19.23
2019-04-21T15:56:40.432Z,19.99
2019-04-21T16:02:42.536Z,19.97
2019-04-21T16:05:16.920Z,19.96
2019-04-21T16:07:56.200Z,19.85
2019-04-21T16:10:43.426Z,19.27
2019-04-21T16:13:09.682Z,20.54
2019-04-21T16:18:34.235Z,19.73
2019-04-21T16:21:06.039Z,20.53
2019-04-21T16:23:40.510Z,21.28
2019-04-21T16:26:10.905Z,21.48
2019-04-21T16:28:41.681Z,22.81
2019-04-21T16:31:12.353Z,22.90
2019-04-21T16:33:43.222Z,23.25
2019-04-21T16:36:15.071Z,25.05
2019-04-21T16:38:49.368Z,25.48
2019-04-21T16:41:20.308Z,26.86
2019-04-21T16:43:51.379Z,28.63
2019-04-21T16:46:21.677Z,29.94
2019-04-21T16:48:53.749Z,30.37
2019-04-21T16:51:24.250Z,31.15
2019-04-21T16:54:01.915Z,31.00
2019-04-21T16:56:47.841Z,32.02
2019-04-21T16:59:26.464Z,32.28
2019-04-21T17:01:58.731Z,32.85
2019-04-21T17:04:36.210Z,32.87
2019-04-21T17:07:26.231Z,32.96
2019-04-21T17:09:56.843Z,33.26
2019-04-21T17:12:30.661Z,33.79
2019-04-21T17:15:18.737Z,33.65
2019-04-21T17:17:54.345Z,33.70
2019-04-21T17:20:21.551Z,33.54
2019-04-21T17:22:39.560Z,33.50
2019-04-21T17:25:10.841Z,34.02
2019-04-21T17:27:41.197Z,34.03
2019-04-21T17:30:12.930Z,34.18
2019-04-21T17:32:48.400Z,34.19
2019-04-21T18:18:05.182Z,35.77
2019-04-21T18:36:06.674Z,37.02
2019-04-21T18:43:35.638Z,37.33
2019-04-21T18:53:36.506Z,38.50
2019-04-21T18:57:49.924Z,38.42
2019-04-21T19:00:32.747Z,38.64
2019-04-21T19:03:39.880Z,38.83
2019-04-21T19:06:10.841Z,39.15
2019-04-21T19:08:59.223Z,39.05
2019-04-21T19:11:28.579Z,39.77
2019-04-21T19:14:28.494Z,39.81
2019-04-21T19:16:53.886Z,40.03
2019-04-21T19:21:58.711Z,40.26
2019-04-21T19:24:30.596Z,40.62
2019-04-21T19:27:03.203Z,40.39
2019-04-21T19:29:28.736Z,40.78
2019-04-21T19:32:03.983Z,40.75
2019-04-21T19:34:22.368Z,40.82
2019-04-21T19:36:52.004Z,41.23
2019-04-21T19:39:36.420Z,41.18
2019-04-21T19:42:00.308Z,41.41
2019-04-21T19:44:38.209Z,41.48
2019-04-21T19:47:10.532Z,41.40
2019-04-21T19:49:49.623Z,41.67
2019-04-21T19:52:05.279Z,41.78
2019-04-21T19:54:36.338Z,41.93
2019-04-21T19:57:02.892Z,42.24
2019-04-21T19:59:41.740Z,42.13
2019-04-21T20:02:06.935Z,42.40
2019-04-21T20:04:43.970Z,42.52
2019-04-21T20:07:24.398Z,42.75
2019-04-21T20:10:05.172Z,42.99
2019-04-21T20:12:36.926Z,43.14
2019-04-21T20:15:14.846Z,43.23
2019-04-21T20:17:34.786Z,43.48
2019-04-21T20:19:50.110Z,43.56
2019-04-21T20:22:23.995Z,43.98
2019-04-21T20:25:01.467Z,44.13
2019-04-21T20:27:36.236Z,44.35
2019-04-21T20:30:15.164Z,44.28
2019-04-21T20:32:49.108Z,44.62
2019-04-21T20:35:23.062Z,44.60
2019-04-21T20:37:47.712Z,45.42
2019-04-21T20:40:19.611Z,45.29
2019-04-21T20:42:50.961Z,45.47
2019-04-21T20:47:48.800Z,45.78
2019-04-21T20:50:29.849Z,45.81
2019-04-21T20:53:05.977Z,45.88
2019-04-21T20:55:35.404Z,45.81
2019-04-21T20:58:04.257Z,45.90
2019-04-21T21:00:54.503Z,45.95
2019-04-21T21:03:20.988Z,46.18
2019-04-21T21:05:42.426Z,46.92
2019-04-21T21:08:26.036Z,47.17
2019-04-21T21:10:53.247Z,47.22
2019-04-21T21:13:31.121Z,47.55
2019-04-21T21:16:11.929Z,47.17
2019-04-21T21:18:48.143Z,47.40
2019-04-21T21:21:04.857Z,47.67
2019-04-21T21:23:37.150Z,47.46
2019-04-21T21:26:11.471Z,47.31
2019-04-21T21:28:37.227Z,47.35
2019-04-21T21:31:13.216Z,47.48
2019-04-21T21:33:54.233Z,47.63
2019-04-21T21:36:28.612Z,47.91
2019-04-21T21:38:55.971Z,47.93
2019-04-21T21:41:13.821Z,48.04
2019-04-21T21:43:37.772Z,47.84
2019-04-21T21:46:26.646Z,48.04
2019-04-21T21:48:51.703Z,48.07
2019-04-21T21:51:20.455Z,48.37
2019-04-21T21:53:45.697Z,48.49
2019-04-21T21:56:26.864Z,48.44
2019-04-21T21:59:01.157Z,48.98
2019-04-21T22:01:38.002Z,48.62
2019-04-21T22:04:12.700Z,49.07
2019-04-21T22:06:44.653Z,49.40
2019-04-21T22:09:10.501Z,49.13
2019-04-21T22:11:42.218Z,49.01
2019-04-21T22:14:23.041Z,49.77
2019-04-21T22:17:06.186Z,50.08
2019-04-21T22:19:48.607Z,49.96
2019-04-21T22:22:09.598Z,50.78
2019-04-21T22:24:39.905Z,50.92
2019-04-21T22:26:55.322Z,51.33
2019-04-21T22:29:48.142Z,51.47
2019-04-21T22:32:20.892Z,51.55
2019-04-21T22:34:54.680Z,51.74
2019-04-21T22:37:35.024Z,51.96
2019-04-21T22:40:04.467Z,52.10
2019-04-21T22:42:32.064Z,52.24
2019-04-21T22:44:56.546Z,52.57
2019-04-21T22:47:32.619Z,52.75
2019-04-21T22:49:58.945Z,52.93
2019-04-21T22:52:30.478Z,53.56
2019-04-21T22:55:08.525Z,53.45
2019-04-21T22:57:41.696Z,53.62
2019-04-21T23:00:10.749Z,53.62
2019-04-21T23:02:39.292Z,53.38
2019-04-21T23:05:11.114Z,53.90
2019-04-21T23:07:51.228Z,54.21
2019-04-21T23:10:13.657Z,54.55
2019-04-21T23:12:44.016Z,54.58
2019-04-21T23:15:19.050Z,54.27
2019-04-21T23:18:06.496Z,54.56
2019-04-21T23:20:38.744Z,54.98
2019-04-21T23:23:11.886Z,54.54
2019-04-21T23:25:40.556Z,54.52
2019-04-21T23:28:10.119Z,54.80
2019-04-21T23:30:50.089Z,55.15
2019-04-21T23:33:06.062Z,55.16
2019-04-21T23:35:36.759Z,55.17
2019-04-21T23:38:05.370Z,55.64
2019-04-21T23:40:35.214Z,55.24
2019-04-21T23:43:09.576Z,55.56
2019-04-21T23:45:40.906Z,55.26
2019-04-21T23:48:23.554Z,56.02
2019-04-21T23:50:50.455Z,55.60
2019-04-21T23:53:13.266Z,56.04
2019-04-21T23:55:43.446Z,56.10
2019-04-21T23:58:21.604Z,56.32
